createdAt,value
2023-05-18T00:00:21.296Z,0.58
2023-05-18T00:01:21.281Z,0.65
2023-05-18T00:02:21.427Z,0.51
2023-05-18T00:03:21.540Z,0.57
2023-05-18T00:04:21.268Z,0.58
2023-05-18T00:05:21.319Z,0.54
2023-05-18T00:06:21.342Z,0.63
2023-05-18T00:07:21.382Z,0.39
2023-05-18T00:08:21.405Z,0.67
2023-05-18T00:09:21.419Z,0.43
2023-05-18T00:10:21.503Z,0.44
2023-05-18T00:11:21.509Z,0.72
2023-05-18T00:12:21.524Z,0.55
2023-05-18T00:13:21.579Z,0.75
2023-05-18T00:14:21.650Z,0.52
2023-05-18T00:15:21.682Z,0.46
2023-05-18T00:16:21.746Z,0.61
2023-05-18T00:17:21.766Z,0.47
2023-05-18T00:18:21.801Z,0.64
2023-05-18T00:19:21.901Z,0.82
2023-05-18T00:20:21.890Z,0.40
2023-05-18T00:21:21.957Z,0.68
2023-05-18T00:22:21.960Z,0.49
2023-05-18T00:23:22.021Z,0.77
2023-05-18T00:24:22.072Z,0.55
2023-05-18T00:25:22.136Z,0.52
2023-05-18T00:26:22.200Z,0.67
2023-05-18T00:27:22.256Z,0.58
2023-05-18T00:28:22.244Z,0.50
2023-05-18T00:29:22.303Z,0.57
2023-05-18T00:30:22.335Z,0.71
2023-05-18T00:31:22.409Z,0.61
2023-05-18T00:32:22.412Z,0.56
2023-05-18T00:33:22.464Z,0.57
2023-05-18T00:34:22.485Z,0.46
2023-05-18T00:35:22.549Z,0.58
2023-05-18T00:36:22.555Z,0.51
2023-05-18T00:37:22.584Z,0.57
2023-05-18T00:38:22.574Z,0.49
2023-05-18T00:39:22.641Z,0.52
2023-05-18T00:40:22.599Z,0.72
2023-05-18T00:41:22.628Z,0.56
2023-05-18T00:42:22.641Z,0.58
2023-05-18T00:43:22.672Z,0.81
2023-05-18T00:44:22.721Z,0.46
2023-05-18T00:45:22.733Z,0.58
2023-05-18T00:46:22.878Z,0.54
2023-05-18T00:47:22.788Z,0.53
2023-05-18T00:48:22.902Z,0.69
2023-05-18T00:49:22.854Z,0.50
2023-05-18T00:50:22.870Z,0.51
2023-05-18T00:51:22.915Z,0.46
2023-05-18T00:52:22.929Z,0.73
2023-05-18T00:53:22.946Z,0.52
2023-05-18T00:54:22.953Z,0.53
2023-05-18T00:55:22.995Z,0.64
2023-05-18T00:56:23.008Z,0.46
2023-05-18T00:57:23.044Z,0.41
2023-05-18T00:58:23.019Z,0.88
2023-05-18T00:59:23.076Z,0.49
2023-05-18T01:00:23.085Z,0.52
2023-05-18T01:01:23.126Z,0.64
2023-05-18T01:02:23.153Z,0.75
2023-05-18T01:03:23.146Z,0.69
2023-05-18T01:04:23.139Z,0.55
2023-05-18T01:05:23.165Z,0.48
2023-05-18T01:06:23.223Z,0.53
2023-05-18T01:07:23.248Z,0.80
2023-05-18T01:08:23.259Z,0.53
2023-05-18T01:09:23.256Z,0.47
2023-05-18T01:10:23.301Z,0.40
2023-05-18T01:11:23.339Z,0.55
2023-05-18T01:12:23.305Z,0.60
2023-05-18T01:13:23.332Z,0.80
2023-05-18T01:14:23.351Z,0.65
2023-05-18T01:15:23.394Z,0.48
2023-05-18T01:16:23.375Z,0.60
2023-05-18T01:17:23.405Z,0.58
2023-05-18T01:18:23.498Z,0.50
2023-05-18T01:19:23.381Z,1.11
2023-05-18T01:20:23.420Z,0.50
2023-05-18T01:21:23.433Z,0.60
2023-05-18T01:22:23.418Z,0.45
2023-05-18T01:23:23.409Z,0.56
2023-05-18T01:24:23.407Z,0.74
2023-05-18T01:25:23.414Z,0.57
2023-05-18T01:26:23.407Z,0.67
2023-05-18T01:27:23.441Z,0.51
2023-05-18T01:28:23.432Z,0.62
2023-05-18T01:29:23.424Z,0.65
2023-05-18T01:30:23.436Z,0.73
2023-05-18T01:31:23.590Z,0.33
2023-05-18T01:32:23.511Z,0.56
2023-05-18T01:33:23.469Z,0.23
2023-05-18T01:34:23.467Z,0.62
2023-05-18T01:35:23.512Z,0.71
2023-05-18T01:36:23.528Z,0.72
2023-05-18T01:37:23.519Z,0.53
2023-05-18T01:38:23.496Z,0.70
2023-05-18T01:39:23.553Z,0.50
2023-05-18T01:40:23.489Z,0.49
2023-05-18T01:41:23.538Z,0.37
2023-05-18T01:42:23.535Z,0.54
2023-05-18T01:43:23.562Z,0.39
2023-05-18T01:44:23.543Z,0.78
2023-05-18T01:45:23.548Z,0.53
2023-05-18T01:46:23.602Z,0.47
2023-05-18T01:47:23.569Z,0.42
2023-05-18T01:48:23.522Z,0.70
2023-05-18T01:49:23.535Z,0.61
2023-05-18T01:50:23.546Z,0.68
2023-05-18T01:51:23.523Z,0.57
2023-05-18T01:52:23.541Z,0.54
2023-05-18T01:53:23.552Z,0.63
2023-05-18T01:54:23.548Z,0.67
2023-05-18T01:55:23.771Z,0.55
2023-05-18T01:56:23.553Z,0.61
2023-05-18T01:57:23.570Z,0.54
2023-05-18T01:58:23.545Z,0.51
2023-05-18T01:59:23.506Z,0.56
2023-05-18T02:00:23.518Z,0.59
2023-05-18T02:01:23.557Z,0.63
2023-05-18T02:02:23.579Z,0.78
2023-05-18T02:03:23.597Z,0.76
2023-05-18T02:04:23.522Z,0.50
2023-05-18T02:05:23.531Z,0.44
2023-05-18T02:06:23.537Z,0.76
2023-05-18T02:07:23.535Z,0.46
2023-05-18T02:08:23.535Z,0.55
2023-05-18T02:09:23.552Z,0.33
2023-05-18T02:10:23.563Z,0.73
2023-05-18T02:11:23.570Z,0.51
2023-05-18T02:12:23.520Z,0.40
2023-05-18T02:13:23.526Z,0.43
2023-05-18T02:14:23.521Z,0.75
2023-05-18T02:15:23.547Z,0.42
2023-05-18T02:16:23.596Z,0.80
2023-05-18T02:17:23.767Z,0.68
2023-05-18T02:18:23.911Z,0.38
2023-05-18T02:19:23.881Z,0.37
2023-05-18T02:20:23.661Z,0.75
2023-05-18T02:21:23.731Z,0.54
2023-05-18T02:22:23.771Z,0.57
2023-05-18T02:23:23.869Z,0.67
2023-05-18T02:24:23.827Z,0.43
2023-05-18T02:25:23.814Z,0.82
2023-05-18T02:26:23.833Z,0.49
2023-05-18T02:27:23.877Z,0.49
2023-05-18T02:28:23.879Z,0.65
2023-05-18T02:29:23.863Z,0.70
2023-05-18T02:30:23.874Z,0.48
2023-05-18T02:31:23.897Z,0.56
2023-05-18T02:32:23.840Z,0.50
2023-05-18T02:33:23.865Z,0.39
2023-05-18T02:34:23.844Z,0.56
2023-05-18T02:35:23.820Z,0.67
2023-05-18T02:36:23.844Z,0.54
2023-05-18T02:37:23.839Z,0.49
2023-05-18T02:38:23.846Z,0.43
2023-05-18T02:39:23.841Z,0.50
2023-05-18T02:40:23.818Z,0.54
2023-05-18T02:41:23.860Z,0.46
2023-05-18T02:42:23.875Z,0.68
2023-05-18T02:43:23.881Z,0.47
2023-05-18T02:44:23.886Z,0.62
2023-05-18T02:45:23.997Z,0.59
2023-05-18T02:46:23.930Z,0.29
2023-05-18T02:47:23.973Z,0.63
2023-05-18T02:48:23.877Z,0.75
2023-05-18T02:49:23.926Z,0.76
2023-05-18T02:50:23.910Z,0.78
2023-05-18T02:51:23.892Z,0.69
2023-05-18T02:52:23.902Z,0.69
2023-05-18T02:53:23.910Z,0.58
2023-05-18T02:54:23.928Z,0.57
2023-05-18T02:55:23.925Z,0.36
2023-05-18T02:56:23.883Z,0.56
2023-05-18T02:57:23.900Z,0.51
2023-05-18T02:58:23.903Z,0.63
2023-05-18T02:59:23.910Z,0.41
2023-05-18T03:00:23.899Z,0.53
2023-05-18T03:01:23.956Z,0.39
2023-05-18T03:02:24.040Z,0.40
2023-05-18T03:03:24.000Z,0.87
2023-05-18T03:04:23.917Z,0.58
2023-05-18T03:05:23.959Z,0.55
2023-05-18T03:06:23.911Z,0.56
2023-05-18T03:07:23.919Z,0.52
2023-05-18T03:08:23.905Z,0.57
2023-05-18T03:09:23.959Z,0.48
2023-05-18T03:10:23.892Z,0.52
2023-05-18T03:11:23.889Z,0.50
2023-05-18T03:12:23.896Z,0.53
2023-05-18T03:13:23.920Z,0.74
2023-05-18T03:14:23.917Z,0.57
2023-05-18T03:15:23.940Z,0.46
2023-05-18T03:16:23.908Z,0.52
2023-05-18T03:17:23.925Z,0.92
2023-05-18T03:18:24.013Z,0.40
2023-05-18T03:19:24.069Z,0.78
2023-05-18T03:20:23.949Z,0.53
2023-05-18T03:21:23.933Z,0.61
2023-05-18T03:22:23.899Z,0.46
2023-05-18T03:23:23.866Z,0.44
2023-05-18T03:24:23.902Z,0.43
2023-05-18T03:25:23.887Z,0.58
2023-05-18T03:26:23.926Z,0.34
2023-05-18T03:27:23.901Z,0.77
2023-05-18T03:28:23.875Z,0.52
2023-05-18T03:29:23.895Z,0.57
2023-05-18T03:30:23.891Z,0.43
2023-05-18T03:31:23.885Z,0.31
2023-05-18T03:32:23.875Z,0.75
2023-05-18T03:33:23.902Z,0.56
2023-05-18T03:34:23.905Z,0.69
2023-05-18T03:35:23.861Z,0.31
2023-05-18T03:36:23.903Z,0.79
2023-05-18T03:37:23.871Z,0.45
2023-05-18T03:38:23.872Z,0.55
2023-05-18T03:39:23.904Z,0.61
2023-05-18T03:40:23.866Z,0.41
2023-05-18T03:41:23.913Z,0.59
2023-05-18T03:42:23.873Z,0.48
2023-05-18T03:43:23.881Z,0.61
2023-05-18T03:44:23.897Z,0.52
2023-05-18T03:45:23.927Z,0.55
2023-05-18T03:46:23.902Z,0.54
2023-05-18T03:47:23.903Z,0.60
2023-05-18T03:48:23.884Z,0.48
2023-05-18T03:49:23.891Z,0.64
2023-05-18T03:50:23.937Z,0.83
2023-05-18T03:51:23.902Z,0.57
2023-05-18T03:52:23.936Z,0.44
2023-05-18T03:53:23.917Z,0.53
2023-05-18T03:54:23.923Z,0.48
2023-05-18T03:55:23.954Z,0.48
2023-05-18T03:56:23.947Z,0.58
2023-05-18T03:57:23.924Z,0.75
2023-05-18T03:58:23.937Z,0.61
2023-05-18T03:59:23.933Z,0.49
2023-05-18T04:00:23.944Z,0.56
2023-05-18T04:01:23.979Z,0.62
2023-05-18T04:02:24.077Z,0.47
2023-05-18T04:03:23.985Z,0.80
2023-05-18T04:04:24.046Z,0.96
2023-05-18T04:05:24.079Z,1.16
2023-05-18T04:06:24.095Z,0.88
2023-05-18T04:07:24.204Z,1.16
2023-05-18T04:08:24.259Z,1.22
2023-05-18T04:09:24.327Z,1.24
2023-05-18T04:10:24.343Z,1.23
2023-05-18T04:11:24.438Z,0.89
2023-05-18T04:12:24.466Z,1.23
2023-05-18T04:13:24.495Z,1.17
2023-05-18T04:14:24.578Z,1.27
2023-05-18T04:15:24.605Z,1.25
2023-05-18T04:16:24.666Z,1.27
2023-05-18T04:17:24.726Z,1.38
2023-05-18T04:18:24.809Z,1.44
2023-05-18T04:19:24.927Z,1.13
2023-05-18T04:20:24.935Z,1.37
2023-05-18T04:21:24.959Z,1.29
2023-05-18T04:22:24.992Z,1.11
2023-05-18T04:23:25.073Z,1.75
2023-05-18T04:24:25.121Z,1.58
2023-05-18T04:25:25.156Z,1.09
2023-05-18T04:26:25.200Z,1.40
2023-05-18T04:27:25.316Z,1.55
2023-05-18T04:28:25.336Z,1.50
2023-05-18T04:29:25.416Z,1.31
2023-05-18T04:30:25.436Z,1.59
2023-05-18T04:31:25.515Z,1.15
2023-05-18T04:32:25.545Z,1.56
2023-05-18T04:33:25.488Z,1.22
2023-05-18T04:34:25.497Z,1.80
2023-05-18T04:35:25.509Z,1.42
2023-05-18T04:36:25.547Z,1.05
2023-05-18T04:37:25.602Z,1.15
2023-05-18T04:38:25.602Z,1.03
2023-05-18T04:39:25.636Z,1.18
2023-05-18T04:40:25.681Z,0.90
2023-05-18T04:41:25.730Z,1.18
2023-05-18T04:42:25.765Z,1.04
2023-05-18T04:43:25.785Z,0.87
2023-05-18T04:44:25.780Z,0.98
2023-05-18T04:45:25.862Z,0.96
2023-05-18T04:46:25.948Z,1.32
2023-05-18T04:47:25.896Z,1.04
2023-05-18T04:48:25.896Z,1.44
2023-05-18T04:49:25.915Z,1.28
2023-05-18T04:50:26.040Z,1.26
2023-05-18T04:51:25.946Z,1.29
2023-05-18T04:52:25.958Z,0.97
2023-05-18T04:53:25.965Z,1.14
2023-05-18T04:54:25.996Z,1.04
2023-05-18T04:55:26.376Z,1.24
2023-05-18T04:56:26.006Z,1.14
2023-05-18T04:57:26.067Z,0.89
2023-05-18T04:58:26.099Z,1.10
2023-05-18T04:59:26.103Z,1.11
2023-05-18T05:00:26.346Z,0.98
2023-05-18T05:01:26.212Z,0.98
2023-05-18T05:02:26.181Z,0.94
2023-05-18T05:03:26.243Z,1.13
2023-05-18T05:04:26.141Z,1.42
2023-05-18T05:05:26.168Z,1.09
2023-05-18T05:06:26.148Z,1.02
2023-05-18T05:07:26.191Z,1.13
2023-05-18T05:08:26.148Z,1.58
2023-05-18T05:09:26.209Z,0.89
2023-05-18T05:10:26.202Z,1.42
2023-05-18T05:11:26.210Z,1.17
2023-05-18T05:12:26.220Z,0.82
2023-05-18T05:13:26.222Z,0.95
2023-05-18T05:14:26.208Z,0.84
2023-05-18T05:15:26.263Z,0.96
2023-05-18T05:16:26.299Z,1.25
2023-05-18T05:17:26.265Z,0.84
2023-05-18T05:18:26.227Z,1.13
2023-05-18T05:19:26.327Z,1.04
2023-05-18T05:20:26.229Z,0.91
2023-05-18T05:21:26.270Z,1.34
2023-05-18T05:22:26.299Z,0.87
2023-05-18T05:23:26.269Z,1.10
2023-05-18T05:24:26.255Z,1.32
2023-05-18T05:25:26.245Z,0.74
2023-05-18T05:26:26.244Z,1.00
2023-05-18T05:27:26.260Z,1.01
2023-05-18T05:28:26.267Z,0.99
2023-05-18T05:29:26.266Z,0.99
2023-05-18T05:30:26.291Z,1.12
2023-05-18T05:31:26.322Z,0.85
2023-05-18T05:32:26.277Z,0.77
2023-05-18T05:33:26.254Z,1.07
2023-05-18T05:34:26.241Z,0.84
2023-05-18T05:35:26.267Z,0.92
2023-05-18T05:36:26.276Z,0.96
2023-05-18T05:37:26.259Z,0.87
2023-05-18T05:38:26.278Z,0.86
2023-05-18T05:39:26.291Z,0.98
2023-05-18T05:40:26.310Z,0.93
2023-05-18T05:41:26.266Z,0.66
2023-05-18T05:42:26.314Z,0.74
2023-05-18T05:43:26.278Z,0.80
2023-05-18T05:44:26.296Z,0.88
2023-05-18T05:45:26.323Z,0.90
2023-05-18T05:46:26.325Z,0.80
2023-05-18T05:47:26.337Z,0.73
2023-05-18T05:48:26.376Z,1.24
2023-05-18T05:49:26.375Z,1.35
2023-05-18T05:50:26.499Z,1.06
2023-05-18T05:51:26.449Z,1.42
2023-05-18T05:52:26.557Z,0.65
2023-05-18T05:53:26.550Z,1.06
2023-05-18T05:54:26.579Z,0.83
2023-05-18T05:55:26.661Z,1.12
2023-05-18T05:56:26.678Z,0.95
2023-05-18T05:57:26.743Z,0.84
2023-05-18T05:58:26.779Z,0.91
2023-05-18T05:59:26.854Z,1.08
2023-05-18T06:00:26.881Z,0.69
2023-05-18T06:01:26.945Z,1.19
2023-05-18T06:02:27.147Z,0.97
2023-05-18T06:03:27.183Z,0.66
2023-05-18T06:04:27.188Z,0.87
2023-05-18T06:05:27.114Z,0.93
2023-05-18T06:06:27.212Z,1.16
2023-05-18T06:07:27.242Z,0.88
2023-05-18T06:08:27.308Z,0.96
2023-05-18T06:09:27.361Z,1.22
2023-05-18T06:10:27.379Z,0.86
2023-05-18T06:11:27.430Z,1.14
2023-05-18T06:12:27.486Z,0.92
2023-05-18T06:13:27.591Z,0.90
2023-05-18T06:14:27.656Z,1.05
2023-05-18T06:15:27.743Z,0.89
2023-05-18T06:16:27.739Z,1.29
2023-05-18T06:17:27.813Z,0.80
2023-05-18T06:18:27.898Z,1.24
2023-05-18T06:19:28.025Z,1.01
2023-05-18T06:20:28.005Z,1.04
2023-05-18T06:21:28.069Z,1.09
2023-05-18T06:22:28.169Z,0.98
2023-05-18T06:23:28.143Z,0.75
2023-05-18T06:24:28.238Z,0.82
2023-05-18T06:25:28.355Z,1.23
2023-05-18T06:26:28.363Z,0.78
2023-05-18T06:27:28.412Z,0.98
2023-05-18T06:28:28.474Z,0.84
2023-05-18T06:29:28.527Z,1.29
2023-05-18T06:30:28.576Z,1.19
2023-05-18T06:31:30.146Z,0.97
2023-05-18T06:32:28.745Z,0.75
2023-05-18T06:33:28.796Z,0.93
2023-05-18T06:34:28.776Z,0.89
2023-05-18T06:35:28.988Z,1.09
2023-05-18T06:36:28.886Z,0.99
2023-05-18T06:37:28.992Z,0.71
2023-05-18T06:38:29.024Z,0.88
2023-05-18T06:39:29.117Z,1.18
2023-05-18T06:40:29.224Z,1.26
2023-05-18T06:41:29.172Z,0.84
2023-05-18T06:42:29.297Z,0.86
2023-05-18T06:43:29.578Z,0.61
2023-05-18T06:44:29.354Z,0.69
2023-05-18T06:45:29.775Z,1.00
2023-05-18T06:46:29.519Z,0.98
2023-05-18T06:47:29.557Z,0.70
2023-05-18T06:48:29.577Z,0.78
2023-05-18T06:49:29.641Z,1.04
2023-05-18T06:50:29.700Z,0.63
2023-05-18T06:51:29.763Z,0.84
2023-05-18T06:52:29.764Z,1.05
2023-05-18T06:53:29.854Z,0.86
2023-05-18T06:54:29.908Z,0.97
2023-05-18T06:55:30.073Z,1.12
2023-05-18T06:56:30.045Z,1.16
2023-05-18T06:57:30.065Z,0.73
2023-05-18T06:58:30.111Z,0.71
2023-05-18T06:59:30.222Z,0.82
2023-05-18T07:00:30.227Z,0.88
2023-05-18T07:01:30.336Z,0.81
2023-05-18T07:02:30.381Z,0.82
2023-05-18T07:03:30.466Z,0.96
2023-05-18T07:04:30.465Z,1.01
2023-05-18T07:05:30.745Z,0.83
2023-05-18T07:06:30.573Z,0.90
2023-05-18T07:07:30.601Z,1.06
2023-05-18T07:08:30.669Z,0.91
2023-05-18T07:09:30.710Z,0.87
2023-05-18T07:10:30.743Z,0.90
2023-05-18T07:11:30.815Z,0.60
2023-05-18T07:12:30.871Z,0.90
2023-05-18T07:13:30.938Z,1.05
2023-05-18T07:14:30.988Z,0.80
2023-05-18T07:15:31.164Z,0.83
2023-05-18T07:16:31.088Z,1.07
2023-05-18T07:17:31.174Z,1.25
2023-05-18T07:18:31.179Z,1.08
2023-05-18T07:19:31.223Z,1.00
2023-05-18T07:20:31.309Z,1.01
2023-05-18T07:21:31.331Z,1.00
2023-05-18T07:22:31.343Z,0.81
2023-05-18T07:23:31.381Z,0.71
2023-05-18T07:24:31.459Z,0.77
2023-05-18T07:25:31.680Z,0.82
2023-05-18T07:26:31.541Z,0.89
2023-05-18T07:27:31.581Z,1.21
2023-05-18T07:28:31.603Z,0.84
2023-05-18T07:29:31.660Z,0.82
2023-05-18T07:30:31.723Z,0.96
2023-05-18T07:31:31.809Z,1.03
2023-05-18T07:32:31.858Z,0.81
2023-05-18T07:33:31.866Z,0.75
2023-05-18T07:34:31.886Z,0.78
2023-05-18T07:35:32.080Z,0.90
2023-05-18T07:36:31.940Z,0.87
2023-05-18T07:37:31.964Z,0.84
2023-05-18T07:38:32.021Z,1.19
2023-05-18T07:39:32.032Z,0.73
2023-05-18T07:40:32.039Z,0.78
2023-05-18T07:41:32.112Z,0.91
2023-05-18T07:42:32.088Z,0.96
2023-05-18T07:43:32.172Z,0.82
2023-05-18T07:44:32.174Z,0.81
2023-05-18T07:45:32.510Z,0.84
2023-05-18T07:46:32.264Z,1.02
2023-05-18T07:47:32.228Z,0.83
2023-05-18T07:48:32.304Z,1.17
2023-05-18T07:49:32.304Z,0.69
2023-05-18T07:50:32.666Z,0.97
2023-05-18T07:51:32.674Z,0.86
2023-05-18T07:52:32.323Z,0.92
2023-05-18T07:53:32.331Z,0.90
2023-05-18T07:54:32.342Z,0.90
2023-05-18T07:55:32.768Z,1.08
2023-05-18T07:56:32.402Z,0.56
2023-05-18T07:57:32.415Z,1.03
2023-05-18T07:58:32.641Z,0.99
2023-05-18T07:59:32.470Z,0.79
2023-05-18T08:00:32.484Z,0.98
2023-05-18T08:01:32.483Z,1.07
2023-05-18T08:02:33.980Z,1.12
2023-05-18T08:03:32.537Z,1.21
2023-05-18T08:04:32.666Z,1.09
2023-05-18T08:05:32.709Z,1.45
2023-05-18T08:06:32.581Z,1.03
2023-05-18T08:07:32.644Z,0.71
2023-05-18T08:08:32.636Z,0.99
2023-05-18T08:09:32.647Z,0.78
2023-05-18T08:10:32.651Z,1.06
2023-05-18T08:11:32.653Z,0.78
2023-05-18T08:12:32.723Z,1.06
2023-05-18T08:13:34.008Z,0.84
2023-05-18T08:14:32.746Z,1.03
2023-05-18T08:15:33.022Z,0.88
2023-05-18T08:16:32.805Z,0.92
2023-05-18T08:17:32.850Z,0.76
2023-05-18T08:18:32.834Z,0.78
2023-05-18T08:19:32.819Z,1.33
2023-05-18T08:20:32.818Z,0.93
2023-05-18T08:21:32.876Z,0.84
2023-05-18T08:22:32.888Z,1.01
2023-05-18T08:23:32.890Z,0.60
2023-05-18T08:24:32.898Z,0.55
2023-05-18T08:25:33.056Z,1.11
2023-05-18T08:26:32.924Z,0.99
2023-05-18T08:27:32.916Z,0.71
2023-05-18T08:28:32.953Z,0.98
2023-05-18T08:29:32.981Z,1.13
2023-05-18T08:30:33.002Z,0.88
2023-05-18T08:31:33.094Z,0.88
2023-05-18T08:32:33.066Z,0.82
2023-05-18T08:33:33.061Z,1.01
2023-05-18T08:34:33.065Z,0.78
2023-05-18T08:35:33.210Z,0.89
2023-05-18T08:36:33.099Z,0.73
2023-05-18T08:37:33.095Z,1.20
2023-05-18T08:38:33.133Z,0.85
2023-05-18T08:39:33.175Z,0.65
2023-05-18T08:40:33.117Z,0.96
2023-05-18T08:41:33.122Z,0.68
2023-05-18T08:42:45.701Z,0.89
2023-05-18T08:43:34.108Z,0.75
2023-05-18T08:44:33.123Z,0.73
2023-05-18T08:45:33.322Z,0.64
2023-05-18T08:46:33.099Z,0.70
2023-05-18T08:47:33.146Z,0.80
2023-05-18T08:48:33.180Z,0.96
2023-05-18T08:49:33.062Z,0.84
2023-05-18T08:50:33.341Z,0.75
2023-05-18T08:51:33.092Z,1.12
2023-05-18T08:52:33.053Z,0.47
2023-05-18T08:53:33.049Z,1.06
2023-05-18T08:54:33.056Z,0.98
2023-05-18T08:55:33.165Z,1.02
2023-05-18T08:56:32.991Z,1.25
2023-05-18T08:57:33.026Z,0.53
2023-05-18T08:58:33.022Z,0.96
2023-05-18T08:59:33.035Z,1.00
2023-05-18T09:00:33.305Z,0.74
2023-05-18T09:01:33.033Z,0.71
2023-05-18T09:02:33.063Z,1.01
2023-05-18T09:03:33.010Z,0.79
2023-05-18T09:04:33.004Z,0.90
2023-05-18T09:05:33.569Z,0.72
2023-05-18T09:06:32.968Z,0.92
2023-05-18T09:07:32.941Z,0.76
2023-05-18T09:08:32.944Z,0.74
2023-05-18T09:09:32.965Z,0.83
2023-05-18T09:10:32.961Z,0.97
2023-05-18T09:11:32.905Z,0.76
2023-05-18T09:12:32.898Z,0.62
2023-05-18T09:13:32.918Z,0.65
2023-05-18T09:14:32.884Z,0.94
2023-05-18T09:15:33.104Z,0.62
2023-05-18T09:16:32.972Z,0.75
2023-05-18T09:17:32.913Z,0.50
2023-05-18T09:18:32.900Z,0.92
2023-05-18T09:19:32.845Z,0.74
2023-05-18T09:20:32.868Z,0.52
2023-05-18T09:21:32.873Z,0.84
2023-05-18T09:22:32.825Z,0.80
2023-05-18T09:23:32.826Z,0.96
2023-05-18T09:24:32.860Z,0.62
2023-05-18T09:25:32.954Z,0.75
2023-05-18T09:26:32.883Z,1.02
2023-05-18T09:27:32.910Z,0.90
2023-05-18T09:28:32.958Z,0.80
2023-05-18T09:29:33.806Z,0.60
2023-05-18T09:30:33.062Z,0.95
2023-05-18T09:31:33.146Z,0.92
2023-05-18T09:32:33.166Z,1.13
2023-05-18T09:33:33.293Z,0.85
2023-05-18T09:34:33.274Z,0.89
2023-05-18T09:35:33.533Z,0.80
2023-05-18T09:36:33.382Z,0.82
2023-05-18T09:37:33.512Z,0.66
2023-05-18T09:38:33.450Z,0.92
2023-05-18T09:39:33.512Z,0.46
2023-05-18T09:40:33.537Z,0.81
2023-05-18T09:41:33.624Z,0.82
2023-05-18T09:42:33.686Z,0.89
2023-05-18T09:43:33.741Z,0.79
2023-05-18T09:44:33.792Z,0.59
2023-05-18T09:45:33.819Z,0.71
2023-05-18T09:46:33.868Z,0.75
2023-05-18T09:47:33.950Z,0.80
2023-05-18T09:48:33.999Z,0.82
2023-05-18T09:49:34.035Z,0.97
2023-05-18T09:50:34.087Z,0.98
2023-05-18T09:51:34.159Z,1.00
2023-05-18T09:52:34.164Z,0.75
2023-05-18T09:53:34.270Z,0.59
2023-05-18T09:54:34.321Z,0.90
2023-05-18T09:55:34.427Z,0.85
2023-05-18T09:56:34.395Z,0.76
2023-05-18T09:57:34.478Z,0.72
2023-05-18T09:58:34.555Z,0.74
2023-05-18T09:59:34.638Z,0.64
2023-05-18T10:00:34.722Z,0.80
2023-05-18T10:01:34.764Z,0.69
2023-05-18T10:02:34.806Z,0.74
2023-05-18T10:03:34.860Z,0.66
2023-05-18T10:04:34.868Z,0.58
2023-05-18T10:05:36.107Z,0.52
2023-05-18T10:06:34.995Z,0.63
2023-05-18T10:07:35.034Z,0.83
2023-05-18T10:08:35.099Z,0.68
2023-05-18T10:09:35.145Z,0.81
2023-05-18T10:10:35.182Z,0.57
2023-05-18T10:11:35.282Z,0.73
2023-05-18T10:12:35.288Z,0.84
2023-05-18T10:13:35.330Z,0.96
2023-05-18T10:14:35.379Z,1.24
2023-05-18T10:15:35.416Z,0.69
2023-05-18T10:16:35.563Z,0.63
2023-05-18T10:17:35.579Z,0.70
2023-05-18T10:18:35.620Z,0.48
2023-05-18T10:19:35.641Z,0.75
2023-05-18T10:20:35.703Z,0.62
2023-05-18T10:21:35.744Z,0.75
2023-05-18T10:22:35.871Z,0.83
2023-05-18T10:23:35.899Z,0.74
2023-05-18T10:24:35.893Z,0.90
2023-05-18T10:25:35.934Z,0.78
2023-05-18T10:26:35.985Z,0.71
2023-05-18T10:27:36.116Z,0.67
2023-05-18T10:28:36.065Z,0.68
2023-05-18T10:29:36.167Z,0.78
2023-05-18T10:30:36.197Z,1.03
2023-05-18T10:31:36.251Z,0.67
2023-05-18T10:32:36.284Z,1.06
2023-05-18T10:33:36.352Z,0.98
2023-05-18T10:34:36.337Z,0.89
2023-05-18T10:35:36.347Z,0.64
2023-05-18T10:36:36.630Z,0.71
2023-05-18T10:37:36.462Z,1.03
2023-05-18T10:38:36.775Z,0.72
2023-05-18T10:39:36.482Z,0.99
2023-05-18T10:40:36.550Z,0.94
2023-05-18T10:41:36.556Z,0.80
2023-05-18T10:42:36.616Z,0.57
2023-05-18T10:43:36.618Z,0.97
2023-05-18T10:44:36.642Z,1.06
2023-05-18T10:45:36.687Z,0.97
2023-05-18T10:46:36.745Z,0.82
2023-05-18T10:47:36.988Z,0.62
2023-05-18T10:48:36.751Z,0.98
2023-05-18T10:49:36.779Z,0.45
2023-05-18T10:50:36.822Z,0.65
2023-05-18T10:51:36.819Z,0.71
2023-05-18T10:52:36.875Z,0.89
2023-05-18T10:53:37.000Z,0.69
2023-05-18T10:54:36.953Z,0.72
2023-05-18T10:55:36.950Z,0.72
2023-05-18T10:56:36.982Z,0.68
2023-05-18T10:57:36.975Z,0.76
2023-05-18T10:58:37.029Z,0.81
2023-05-18T10:59:37.036Z,0.81
2023-05-18T11:00:37.033Z,0.66
2023-05-18T11:01:37.128Z,0.69
2023-05-18T11:02:37.133Z,0.64
2023-05-18T11:03:37.164Z,0.80
2023-05-18T11:04:37.198Z,0.82
2023-05-18T11:05:37.212Z,0.80
2023-05-18T11:06:37.240Z,0.59
2023-05-18T11:07:37.256Z,0.73
2023-05-18T11:08:37.284Z,0.89
2023-05-18T11:09:37.323Z,0.73
2023-05-18T11:10:37.359Z,0.68
2023-05-18T11:11:37.335Z,0.59
2023-05-18T11:12:37.362Z,0.70
2023-05-18T11:13:37.405Z,0.65
2023-05-18T11:14:37.624Z,1.02
2023-05-18T11:15:37.444Z,0.64
2023-05-18T11:16:37.548Z,0.78
2023-05-18T11:17:37.519Z,0.63
2023-05-18T11:18:37.530Z,0.72
2023-05-18T11:19:37.507Z,0.50
2023-05-18T11:20:37.583Z,0.78
2023-05-18T11:21:37.582Z,0.51
2023-05-18T11:22:37.601Z,0.78
2023-05-18T11:23:37.656Z,0.95
2023-05-18T11:24:37.668Z,0.73
2023-05-18T11:25:37.608Z,0.61
2023-05-18T11:26:37.652Z,0.88
2023-05-18T11:27:37.691Z,0.65
2023-05-18T11:28:37.671Z,0.79
2023-05-18T11:29:37.696Z,0.66
2023-05-18T11:30:37.902Z,0.67
2023-05-18T11:31:37.857Z,1.08
2023-05-18T11:32:37.787Z,0.88
2023-05-18T11:33:37.852Z,0.73
2023-05-18T11:34:39.711Z,0.94
2023-05-18T11:35:37.844Z,0.65
2023-05-18T11:36:37.840Z,0.76
2023-05-18T11:37:37.850Z,0.57
2023-05-18T11:38:37.915Z,0.60
2023-05-18T11:39:48.112Z,0.72
2023-05-18T11:40:38.938Z,0.85
2023-05-18T11:41:37.928Z,0.83
2023-05-18T11:42:37.936Z,0.83
2023-05-18T11:43:37.892Z,0.79
2023-05-18T11:44:37.888Z,0.92
2023-05-18T11:45:37.907Z,0.72
2023-05-18T11:46:37.895Z,0.81
2023-05-18T11:47:38.157Z,0.81
2023-05-18T11:48:37.918Z,0.63
2023-05-18T11:49:37.870Z,0.85
2023-05-18T11:50:37.848Z,0.73
2023-05-18T11:51:37.859Z,0.82
2023-05-18T11:52:37.855Z,0.88
2023-05-18T11:53:37.856Z,0.88
2023-05-18T11:54:37.806Z,0.85
2023-05-18T11:55:37.831Z,0.79
2023-05-18T11:56:37.814Z,0.95
2023-05-18T11:57:37.833Z,0.95
2023-05-18T11:58:37.965Z,0.74
2023-05-18T11:59:37.880Z,0.83
2023-05-18T12:00:37.973Z,0.89
2023-05-18T12:01:37.928Z,0.60
2023-05-18T12:02:38.032Z,0.92
2023-05-18T12:03:38.001Z,0.76
2023-05-18T12:04:38.024Z,0.75
2023-05-18T12:05:38.085Z,0.68
2023-05-18T12:06:38.160Z,0.70
2023-05-18T12:07:38.265Z,0.73
2023-05-18T12:08:38.391Z,0.46
2023-05-18T12:09:38.416Z,0.73
2023-05-18T12:10:38.448Z,0.76
2023-05-18T12:11:38.395Z,0.83
2023-05-18T12:12:38.408Z,0.82
2023-05-18T12:13:38.412Z,0.72
2023-05-18T12:14:38.420Z,0.55
2023-05-18T12:15:38.537Z,0.54
2023-05-18T12:16:38.559Z,0.79
2023-05-18T12:17:38.587Z,1.01
2023-05-18T12:18:38.584Z,0.56
2023-05-18T12:19:38.613Z,0.94
2023-05-18T12:20:38.559Z,0.44
2023-05-18T12:21:38.553Z,0.56
2023-05-18T12:22:38.585Z,0.50
2023-05-18T12:23:38.595Z,0.78
2023-05-18T12:24:38.583Z,0.65
2023-05-18T12:25:38.627Z,0.59
2023-05-18T12:26:38.621Z,0.80
2023-05-18T12:27:38.640Z,0.64
2023-05-18T12:28:38.648Z,0.65
2023-05-18T12:29:38.678Z,0.53
2023-05-18T12:30:38.791Z,0.83
2023-05-18T12:31:38.870Z,0.54
2023-05-18T12:32:38.780Z,0.73
2023-05-18T12:33:38.786Z,0.69
2023-05-18T12:34:38.850Z,0.88
2023-05-18T12:35:38.853Z,0.67
2023-05-18T12:36:38.916Z,0.72
2023-05-18T12:38:39.961Z,0.57
2023-05-18T12:39:38.927Z,0.62
2023-05-18T12:40:38.937Z,0.78
2023-05-18T12:41:38.931Z,0.78
2023-05-18T12:42:38.947Z,0.83
2023-05-18T12:43:38.926Z,0.71
2023-05-18T12:44:38.928Z,0.64
2023-05-18T12:45:38.925Z,0.55
2023-05-18T12:46:39.112Z,0.64
2023-05-18T12:47:39.148Z,0.83
2023-05-18T12:48:39.154Z,0.67
2023-05-18T12:49:39.203Z,0.78
2023-05-18T12:50:39.256Z,0.84
2023-05-18T12:51:39.299Z,0.57
2023-05-18T12:52:39.377Z,0.75
2023-05-18T12:53:39.650Z,0.85
2023-05-18T12:54:39.512Z,1.16
2023-05-18T12:55:39.540Z,0.50
2023-05-18T12:56:39.614Z,0.63
2023-05-18T12:57:39.662Z,0.71
2023-05-18T12:58:39.747Z,0.90
2023-05-18T12:59:39.780Z,0.72
2023-05-18T13:00:39.865Z,0.36
2023-05-18T13:01:39.923Z,0.65
2023-05-18T13:02:40.065Z,0.77
2023-05-18T13:03:40.155Z,0.70
2023-05-18T13:04:40.095Z,0.83
2023-05-18T13:05:40.191Z,1.11
2023-05-18T13:06:40.212Z,0.80
2023-05-18T13:07:40.309Z,0.93
2023-05-18T13:08:40.345Z,0.61
2023-05-18T13:09:40.493Z,0.53
2023-05-18T13:10:40.815Z,0.56
2023-05-18T13:11:40.538Z,0.72
2023-05-18T13:12:40.669Z,0.60
2023-05-18T13:13:40.668Z,0.61
2023-05-18T13:14:40.700Z,0.73
2023-05-18T13:15:40.761Z,0.82
2023-05-18T13:16:40.843Z,0.80
2023-05-18T13:17:40.914Z,0.79
2023-05-18T13:18:40.960Z,0.74
2023-05-18T13:19:41.005Z,0.44